sensor_id;sensor_type;location;lat;lon;timestamp;P1;durP1;ratioP1;P2;durP2;ratioP2
78453;SDS011;67750;55.832;49.124;2023-05-29T19:12:21;9.93;;;5.72;;
78453;SDS011;67750;55.832;49.124;2023-05-29T19:14:51;12.45;;;6.37;;
78453;SDS011;67750;55.832;49.124;2023-05-29T19:17:21;17.45;;;8.70;;
78453;SDS011;67750;55.832;49.124;2023-05-29T19:19:51;18.07;;;9.10;;
78453;SDS011;67750;55.832;49.124;2023-05-29T19:22:21;18.20;;;9.53;;
78453;SDS011;67750;55.832;49.124;2023-05-29T19:24:51;19.15;;;10.08;;
78453;SDS011;67750;55.832;49.124;2023-05-29T19:27:21;22.87;;;13.10;;
78453;SDS011;67750;55.832;49.124;2023-05-29T19:29:51;19.82;;;10.18;;
78453;SDS011;67750;55.832;49.124;2023-05-29T19:34:51;21.30;;;13.58;;
78453;SDS011;67750;55.832;49.124;2023-05-29T19:37:21;22.65;;;13.20;;
78453;SDS011;67750;55.832;49.124;2023-05-29T19:39:52;20.52;;;13.25;;
78453;SDS011;67750;55.832;49.124;2023-05-29T19:42:23;23.47;;;14.43;;
78453;SDS011;67750;55.832;49.124;2023-05-29T19:44:55;26.42;;;12.28;;
78453;SDS011;67750;55.832;49.124;2023-05-29T19:47:27;20.77;;;13.35;;
78453;SDS011;67750;55.832;49.124;2023-05-29T19:49:57;23.42;;;15.58;;
78453;SDS011;67750;55.832;49.124;2023-05-29T19:52:46;54.83;;;24.25;;
78453;SDS011;67750;55.832;49.124;2023-05-29T19:55:16;23.45;;;12.30;;
78453;SDS011;67750;55.832;49.124;2023-05-29T19:57:46;20.30;;;13.62;;
78453;SDS011;67750;55.832;49.124;2023-05-29T20:00:16;22.42;;;12.50;;
78453;SDS011;67750;55.832;49.124;2023-05-29T20:02:47;22.27;;;12.20;;
78453;SDS011;67750;55.832;49.124;2023-05-29T20:05:18;16.42;;;10.48;;
78453;SDS011;67750;55.832;49.124;2023-05-29T20:07:48;20.97;;;10.45;;
78453;SDS011;67750;55.832;49.124;2023-05-29T20:10:17;18.62;;;10.58;;
78453;SDS011;67750;55.832;49.124;2023-05-29T20:12:48;20.37;;;11.43;;
78453;SDS011;67750;55.832;49.124;2023-05-29T20:15:18;20.37;;;10.95;;
78453;SDS011;67750;55.832;49.124;2023-05-29T20:17:48;20.05;;;9.85;;
78453;SDS011;67750;55.832;49.124;2023-05-29T20:20:18;15.53;;;9.00;;
78453;SDS011;67750;55.832;49.124;2023-05-29T20:22:47;18.10;;;9.75;;
78453;SDS011;67750;55.832;49.124;2023-05-29T20:25:17;18.40;;;9.00;;
78453;SDS011;67750;55.832;49.124;2023-05-29T20:27:47;15.80;;;8.60;;
78453;SDS011;67750;55.832;49.124;2023-05-29T20:30:16;16.57;;;9.53;;
78453;SDS011;67750;55.832;49.124;2023-05-29T20:32:46;18.45;;;9.73;;
78453;SDS011;67750;55.832;49.124;2023-05-29T20:35:18;16.27;;;9.85;;
78453;SDS011;67750;55.832;49.124;2023-05-29T20:37:48;18.45;;;10.18;;
78453;SDS011;67750;55.832;49.124;2023-05-29T20:40:19;19.67;;;10.40;;
78453;SDS011;67750;55.832;49.124;2023-05-29T20:42:48;16.82;;;9.23;;
78453;SDS011;67750;55.832;49.124;2023-05-29T20:45:18;15.70;;;9.48;;
78453;SDS011;67750;55.832;49.124;2023-05-29T20:47:48;13.90;;;8.80;;
78453;SDS011;67750;55.832;49.124;2023-05-29T20:50:19;13.15;;;8.85;;
78453;SDS011;67750;55.832;49.124;2023-05-29T20:52:51;22.10;;;10.65;;
78453;SDS011;67750;55.832;49.124;2023-05-29T20:55:20;15.43;;;10.85;;
78453;SDS011;67750;55.832;49.124;2023-05-29T20:57:51;16.52;;;9.58;;
78453;SDS011;67750;55.832;49.124;2023-05-29T21:00:21;14.15;;;9.38;;
78453;SDS011;67750;55.832;49.124;2023-05-29T21:02:50;19.52;;;9.80;;
78453;SDS011;67750;55.832;49.124;2023-05-29T21:05:20;17.10;;;9.55;;
78453;SDS011;67750;55.832;49.124;2023-05-29T21:07:51;18.67;;;9.50;;
78453;SDS011;67750;55.832;49.124;2023-05-29T21:10:22;19.00;;;8.95;;
78453;SDS011;67750;55.832;49.124;2023-05-29T21:12:52;17.87;;;8.83;;
78453;SDS011;67750;55.832;49.124;2023-05-29T21:15:22;19.50;;;9.50;;
78453;SDS011;67750;55.832;49.124;2023-05-29T21:17:51;18.70;;;9.48;;
78453;SDS011;67750;55.832;49.124;2023-05-29T21:20:21;17.50;;;9.05;;
78453;SDS011;67750;55.832;49.124;2023-05-29T21:22:51;16.95;;;9.10;;
78453;SDS011;67750;55.832;49.124;2023-05-29T21:28:12;19.98;;;9.15;;
78453;SDS011;67750;55.832;49.124;2023-05-29T21:30:42;14.15;;;8.95;;
78453;SDS011;67750;55.832;49.124;2023-05-29T21:33:11;12.37;;;8.58;;
78453;SDS011;67750;55.832;49.124;2023-05-29T21:35:41;15.40;;;8.63;;
78453;SDS011;67750;55.832;49.124;2023-05-29T21:38:11;16.85;;;8.05;;
78453;SDS011;67750;55.832;49.124;2023-05-29T21:40:40;15.48;;;8.75;;
78453;SDS011;67750;55.832;49.124;2023-05-29T21:43:10;14.70;;;7.92;;
78453;SDS011;67750;55.832;49.124;2023-05-29T21:45:39;15.18;;;7.83;;
78453;SDS011;67750;55.832;49.124;2023-05-29T21:48:10;12.45;;;8.00;;
78453;SDS011;67750;55.832;49.124;2023-05-29T21:50:40;11.45;;;7.10;;
78453;SDS011;67750;55.832;49.124;2023-05-29T21:55:39;15.45;;;6.40;;
78453;SDS011;67750;55.832;49.124;2023-05-29T21:58:08;13.58;;;6.47;;
78453;SDS011;67750;55.832;49.124;2023-05-29T22:00:38;10.28;;;6.33;;
78453;SDS011;67750;55.832;49.124;2023-05-29T22:03:08;9.40;;;6.60;;
78453;SDS011;67750;55.832;49.124;2023-05-29T22:05:37;11.30;;;6.97;;
78453;SDS011;67750;55.832;49.124;2023-05-29T22:08:07;12.07;;;7.00;;
78453;SDS011;67750;55.832;49.124;2023-05-29T22:10:37;11.22;;;6.17;;
78453;SDS011;67750;55.832;49.124;2023-05-29T22:13:06;10.00;;;6.20;;
78453;SDS011;67750;55.832;49.124;2023-05-29T22:15:36;11.73;;;6.28;;
78453;SDS011;67750;55.832;49.124;2023-05-29T22:18:06;9.55;;;5.60;;
78453;SDS011;67750;55.832;49.124;2023-05-29T22:20:35;11.68;;;6.35;;
78453;SDS011;67750;55.832;49.124;2023-05-29T22:23:05;11.25;;;5.92;;
78453;SDS011;67750;55.832;49.124;2023-05-29T22:25:35;10.35;;;6.83;;
78453;SDS011;67750;55.832;49.124;2023-05-29T22:28:04;9.83;;;5.78;;
78453;SDS011;67750;55.832;49.124;2023-05-29T22:30:34;9.18;;;6.33;;
78453;SDS011;67750;55.832;49.124;2023-05-29T22:33:03;11.33;;;5.95;;
78453;SDS011;67750;55.832;49.124;2023-05-29T22:35:33;12.88;;;6.12;;
78453;SDS011;67750;55.832;49.124;2023-05-29T22:38:02;11.75;;;6.22;;
78453;SDS011;67750;55.832;49.124;2023-05-29T22:40:32;10.20;;;5.80;;
78453;SDS011;67750;55.832;49.124;2023-05-29T22:43:01;9.10;;;6.22;;
78453;SDS011;67750;55.832;49.124;2023-05-29T22:45:31;8.68;;;5.62;;
78453;SDS011;67750;55.832;49.124;2023-05-29T22:48:01;10.13;;;5.85;;
78453;SDS011;67750;55.832;49.124;2023-05-29T22:50:30;11.10;;;5.33;;
78453;SDS011;67750;55.832;49.124;2023-05-29T22:53:00;9.28;;;5.40;;
78453;SDS011;67750;55.832;49.124;2023-05-29T22:55:29;8.95;;;5.20;;
78453;SDS011;67750;55.832;49.124;2023-05-29T22:58:00;8.58;;;5.83;;
78453;SDS011;67750;55.832;49.124;2023-05-29T23:00:30;12.37;;;5.75;;
78453;SDS011;67750;55.832;49.124;2023-05-29T23:03:01;9.95;;;5.85;;
78453;SDS011;67750;55.832;49.124;2023-05-29T23:05:33;11.90;;;5.95;;
78453;SDS011;67750;55.832;49.124;2023-05-29T23:08:03;9.50;;;5.08;;
78453;SDS011;67750;55.832;49.124;2023-05-29T23:10:32;6.55;;;4.58;;
78453;SDS011;67750;55.832;49.124;2023-05-29T23:13:03;7.55;;;5.05;;
78453;SDS011;67750;55.832;49.124;2023-05-29T23:15:32;11.00;;;4.92;;
78453;SDS011;67750;55.832;49.124;2023-05-29T23:18:02;7.75;;;4.92;;
78453;SDS011;67750;55.832;49.124;2023-05-29T23:20:32;9.43;;;5.22;;
78453;SDS011;67750;55.832;49.124;2023-05-29T23:23:03;8.68;;;4.80;;
78453;SDS011;67750;55.832;49.124;2023-05-29T23:25:33;8.60;;;4.87;;
78453;SDS011;67750;55.832;49.124;2023-05-29T23:28:02;8.68;;;5.22;;
78453;SDS011;67750;55.832;49.124;2023-05-29T23:30:32;7.30;;;4.67;;
78453;SDS011;67750;55.832;49.124;2023-05-29T23:33:02;7.00;;;4.50;;
78453;SDS011;67750;55.832;49.124;2023-05-29T23:35:32;8.18;;;4.85;;
78453;SDS011;67750;55.832;49.124;2023-05-29T23:38:02;15.50;;;8.05;;
78453;SDS011;67750;55.832;49.124;2023-05-29T23:43:00;6.92;;;4.50;;
78453;SDS011;67750;55.832;49.124;2023-05-29T23:45:30;8.10;;;4.87;;
78453;SDS011;67750;55.832;49.124;2023-05-29T23:47:59;9.18;;;5.33;;
78453;SDS011;67750;55.832;49.124;2023-05-29T23:50:29;7.15;;;4.25;;
78453;SDS011;67750;55.832;49.124;2023-05-29T23:52:58;9.48;;;5.10;;
78453;SDS011;67750;55.832;49.124;2023-05-29T23:55:28;8.43;;;4.70;;
78453;SDS011;67750;55.832;49.124;2023-05-29T23:57:59;6.95;;;4.90;;
